Identifiez vous afin de poster une observation
 • Tableaux GEFS   

Tableaux GEFS de Températures 500hPa (°C)

Run GEFS du 20/02/2018 06Z - Choix du run : 00 - 06 - 12 - 18 Sauver tableau : Conserver cette image

Paramètres : [ Temp. 850hPa ] - [ Temp. 500hPa ] - [ Pression ] - [ Précip. ] - [ Temp. 2m ] - [ Z500 ] - [ CAPE ] -
[ Vent+Direction 10m ] - [ Vent 10m ] - [ Vent Rafales 10m ] - [ Vent+Direction 850hPa ] - [ Vent 850hPa ] - [ Iso 0 ] -
Tri des valeurs : [ Par scénario ] - [ Ascendant ] - [ Descendant ]

Localisation : 42.7N 23.3E

DateEch.
2018-02-20 06Z0-26.1-25.8-25.8-25.8-25.8-25.8-25.8-25.8-25.8-25.7-25.6-25.6-25.6-25.6-25.6-25.6-25.6-25.6-25.6-25.5-25.5-25.1
2018-02-20 09Z3-25.5-25.3-25.3-25.3-25.3-25.3-25.3-25.3-25.3-25.3-25.3-25.3-25.3-25.3-25.2-25.1-25.1-25.1-25.1-25.1-25.1-25
2018-02-20 12Z6-25.3-25.3-25.3-25.1-25.1-25.1-25.1-25.1-25.1-25.1-25.1-25.1-25.1-25.1-25-25-25-25-24.9-24.8-24.8-24.8
2018-02-20 15Z9-25.1-25.1-25.1-25-25-25-25-25-24.8-24.8-24.8-24.8-24.8-24.8-24.8-24.8-24.8-24.8-24.7-24.6-24.6-24.6
2018-02-20 18Z12-25.1-25.1-25.1-25.1-25.1-25.1-25-25-25-25-24.8-24.8-24.8-24.8-24.8-24.6-24.6-24.6-24.6-24.6-24.6-24.5
2018-02-20 21Z15-25.6-25.3-25.3-25.1-25.1-25.1-25.1-25.1-25-25-25-25-25-24.9-24.8-24.8-24.8-24.8-24.6-24.6-24.6-24.3
2018-02-21 00Z18-25.6-25.6-25.6-25.5-25.3-25.3-25.3-25.3-25.1-25.1-25.1-25.1-25.1-25.1-25-25-25-24.8-24.8-24.8-24.8-24.6
2018-02-21 03Z21-25.8-25.8-25.6-25.6-25.6-25.5-25.5-25.5-25.5-25.3-25.3-25.3-25.1-25.1-25.1-25.1-25.1-25-25-25-24.8-24.8
2018-02-21 06Z24-26-25.9-25.8-25.8-25.6-25.6-25.6-25.6-25.6-25.5-25.5-25.5-25.5-25.5-25.3-25.3-25.3-25.3-25.3-25.1-25-24.8
2018-02-21 09Z27-25.8-25.8-25.8-25.8-25.8-25.8-25.6-25.6-25.6-25.5-25.5-25.3-25.3-25.3-25.3-25.3-25.3-25.3-25.3-25.1-24.8-24.8
2018-02-21 12Z30-26-25.8-25.8-25.8-25.7-25.6-25.6-25.6-25.6-25.5-25.5-25.3-25.3-25.3-25.3-25.1-25.1-25.1-25.1-25.1-25-24.8
2018-02-21 15Z33-25.8-25.6-25.6-25.6-25.6-25.6-25.6-25.3-25.3-25.3-25.3-25.1-25.1-25.1-25.1-25.1-25.1-25-24.8-24.8-24.8-24.5
2018-02-21 18Z36-26.1-25.8-25.6-25.6-25.6-25.6-25.6-25.3-25.3-25.3-25.1-25.1-25.1-25-24.8-24.8-24.8-24.8-24.8-24.6-24.6-24.5
2018-02-21 21Z39-25.8-25.8-25.8-25.8-25.6-25.6-25.5-25.5-25.1-25.1-25.1-25-24.9-24.8-24.8-24.8-24.8-24.6-24.6-24.5-24.3-24.3
2018-02-22 00Z42-25.8-25.8-25.8-25.6-25.5-25.4-25.3-25.3-25.3-25.3-25.3-25.3-25.1-25.1-25.1-25-25-25-24.6-24.6-24.6-24.6
2018-02-22 03Z45-26-25.9-25.8-25.6-25.6-25.6-25.6-25.6-25.5-25.5-25.5-25.5-25.3-25.3-25.3-25.1-25.1-25-25-25-24.8-24.5
2018-02-22 06Z48-26.5-26.3-26-26-26-25.8-25.8-25.8-25.8-25.8-25.8-25.6-25.6-25.6-25.6-25.5-25.3-25.3-25.3-25.1-24.8-24.6
2018-02-22 09Z51-26.3-26.3-25.8-25.8-25.8-25.8-25.6-25.6-25.6-25.6-25.6-25.6-25.5-25.3-25.3-25.3-25.3-25.3-25.3-25.1-25.1-24.8
2018-02-22 12Z54-25.6-25.5-25.5-25.3-25.3-25.3-25.1-25.1-25.1-25.1-25-24.8-24.8-24.8-24.8-24.8-24.8-24.8-24.8-24.6-24.6-24.6
2018-02-22 15Z57-25.3-25.3-25.1-24.9-24.8-24.8-24.8-24.8-24.8-24.8-24.6-24.6-24.6-24.6-24.6-24.6-24.5-24.5-24.5-24.3-24.3-24.1
2018-02-22 18Z60-25.5-25.1-25-24.8-24.8-24.8-24.8-24.8-24.8-24.8-24.6-24.6-24.6-24.6-24.6-24.6-24.6-24.5-24.5-24.3-24.1-24.1
2018-02-22 21Z63-25.6-25.1-25.1-24.8-24.8-24.8-24.8-24.6-24.6-24.6-24.6-24.6-24.6-24.5-24.5-24.5-24.5-24.3-24.3-24.3-24.3-24.1
2018-02-23 00Z66-25.1-25-24.8-24.6-24.5-24.5-24.5-24.5-24.5-24.4-24.3-24.3-24.3-24.3-24.1-24.1-24.1-24.1-24.1-24.1-23.8-23.8
2018-02-23 03Z69-24.8-24.6-24.5-24.3-24.3-24.3-24.3-24.2-24.1-24.1-24.1-24.1-24.1-24.1-24.1-24.1-24-23.8-23.8-23.8-23.8-23.6
2018-02-23 06Z72-24.6-24.5-24.3-24.3-24.3-24.3-24.3-24.2-24.1-24.1-24.1-24.1-24.1-24-24-24-23.8-23.8-23.8-23.8-23.6-23.6
2018-02-23 09Z75-24.3-24.3-24.3-24.3-24.3-24.1-24.1-24.1-24.1-24.1-24.1-24.1-24.1-24-24-24-24-23.8-23.8-23.5-23.5-23.3
2018-02-23 12Z78-24.3-24.3-24.1-24.1-24-24-24-23.9-23.8-23.8-23.8-23.8-23.8-23.8-23.6-23.6-23.6-23.6-23.5-23.3-23.3-23.1
2018-02-23 15Z81-24.3-24.1-24.1-24-23.8-23.8-23.8-23.8-23.6-23.6-23.6-23.6-23.5-23.3-23.3-23.3-23.3-23.3-23.3-23.1-23-23
2018-02-23 18Z84-24.3-24.1-24-24-23.8-23.8-23.8-23.8-23.6-23.6-23.6-23.6-23.6-23.6-23.3-23.3-23.3-23.3-23.3-23.1-23.1-23.1
2018-02-23 21Z87-24.3-24.1-23.8-23.8-23.8-23.8-23.8-23.8-23.6-23.6-23.6-23.6-23.6-23.5-23.5-23.5-23.5-23.3-23.3-23.3-23.3-22.8
2018-02-24 00Z90-24.5-24.1-24-23.8-23.8-23.6-23.6-23.6-23.5-23.5-23.5-23.5-23.3-23.3-23.3-23.3-23.3-23.1-23.1-23.1-22.8-22.6
2018-02-24 03Z93-24.8-24-23.8-23.8-23.8-23.6-23.6-23.5-23.5-23.3-23.3-23.3-23.3-23.1-23.1-23.1-23-23-22.8-22.8-22.6-22.5
2018-02-24 06Z96-24.6-24.1-24-24-23.8-23.6-23.6-23.6-23.6-23.5-23.3-23.3-23.1-23.1-22.8-22.8-22.6-22.6-22.6-22.3-22.3-22.1
2018-02-24 09Z99-25.1-24.6-24.1-24.1-24-24-23.7-23.6-23.6-23.6-23.6-23.5-23.3-23.1-22.8-22.8-22.8-22.8-22.8-22.6-22.6-22.3
2018-02-24 12Z102-27-25.8-24.1-24.1-24.1-24-23.8-23.8-23.6-23.6-23.5-23.5-23.4-23.1-23.1-23.1-23.1-22.8-22.6-22.6-22.5-22
2018-02-24 15Z105-28.6-26.8-26.3-24.6-24.5-24.3-24.1-24.1-24.1-23.8-23.8-23.8-23.8-23.6-23.6-23.5-23.3-23.3-23.1-22.8-22.3-22.1
2018-02-24 18Z108-29.1-27.3-27.1-26.6-25.8-25.6-25.1-24.6-24.6-24.5-24.3-24.1-24.1-24-23.8-23.6-23.3-23.1-23.1-23-22.8-22.6
2018-02-24 21Z111-29.3-28.3-28.1-27.3-27.1-26.8-25.6-25.6-25.6-25.6-24.8-24.3-24.3-24.3-23.8-23.8-23.8-23.6-23.6-23.5-23.5-22.8
2018-02-25 00Z114-30-29.1-28.6-28.1-28-27.5-27.5-27-26.6-25.8-25.6-25.3-25-24.8-24.6-24.5-24.1-24-24-24-23.6-22.8
2018-02-25 03Z117-30.1-29.5-28.8-28.8-28.5-28.5-28.3-28.3-27.5-27.5-26.3-26.1-26.1-25.6-25.6-25.6-25.3-25-24.5-23.8-23.6-22.8
2018-02-25 06Z120-30.5-29.6-29.5-29.5-29.3-29-28.8-28.8-28.8-27.8-27.1-27-27-26.6-26.3-26.3-25.8-25.3-25-24.8-24.1-23.5
2018-02-25 09Z123-30-30-30-29.8-29.8-29.6-28.5-28.1-27.8-27.8-27.6-27.3-27.3-27.3-27.1-26.8-26.1-25.6-25.1-24.8-24.1-24
2018-02-25 12Z126-30.5-30.3-30-30-29.6-29.5-29.5-28.8-28.5-27.8-27.6-27.6-27.3-27.3-26.6-26.1-25.5-25-24.8-24.8-24.6-24.3
2018-02-25 15Z129-30.5-29.8-29.6-29.6-29.3-29.1-29.1-28.8-28.6-28.5-27.8-27.3-26.8-26.1-25.8-25.8-25.8-25.8-25.1-24.8-24.8-24.3
2018-02-25 18Z132-30.1-30.1-29.8-29.5-29.3-29.1-29-28.3-27.6-27-27-26.8-26.6-26.1-26.1-25.8-25.6-25.6-25.3-25.3-25.1-24.8
2018-02-25 21Z135-30.3-30.3-29.3-29.1-29.1-28.6-28.1-27.6-27.3-27.1-26.8-26.5-26.5-26.5-26.3-26.1-26.1-25.6-25-25-24.8-24.8
2018-02-26 00Z138-31.3-30.3-29.3-28.8-28.8-28.3-27.6-27.6-27.3-27.3-27.1-27.1-26.6-26.3-26.3-26.3-26.1-26.1-25.3-25-24.6-24.5
2018-02-26 03Z141-32.6-29.6-29.6-29.1-29.1-28.6-27.8-27.6-27.5-27.3-27.1-26.8-26.8-26.6-26.6-26.1-25.9-25.6-25.5-24.6-24.3-24.1
2018-02-26 06Z144-32.8-30.1-29.8-29.8-29.5-29.3-28.6-28-27.8-27.3-26.8-26.5-26.3-25.8-25.8-25.8-25.8-25.8-25.8-25.1-24.6-23.8
2018-02-26 09Z147-32.6-30.3-29.6-28.6-28.6-28.5-28.3-28.1-27.8-27.6-27.4-27.3-27.3-27.1-26.3-25.6-25.5-25.3-25-24.3-24.1-23.6
2018-02-26 12Z150-33.1-30-29.3-28.6-28.6-28.3-28.1-27.8-27.6-27.5-27.3-27.3-27.1-26.8-26.6-26.1-25-24.8-24.5-24.5-23.6-22.6
2018-02-26 15Z153-33.6-30-29.8-29.5-29.2-28.6-28.3-28-27.8-27.5-27.3-27-26.8-26.3-25.8-25.5-25.3-25.1-25.1-25-23.8-23
2018-02-26 18Z156-34.6-30.3-30.1-30-29-28.6-28.5-28-27.6-27.1-27-26.8-26.6-26.5-26.3-26.3-25.8-25.8-25.3-25.1-24.3-24.1
2018-02-26 21Z159-36.6-30.8-30.3-30-29-29-28.6-28.6-28.1-28-28-26.8-26.6-26.3-26.1-26.1-26-25.3-25.1-24.8-23.8-22.8
2018-02-27 00Z162-37.5-31.1-30.6-29.3-29.3-28.8-28.8-28.8-28.7-28.6-28.6-27.3-27.3-27.1-26.5-26.3-26.3-26.1-25.8-24.3-22.8-22.5
2018-02-27 03Z165-37.1-32.6-32.5-31-30.1-29.8-29.3-29.2-29.1-28.1-28.1-27.6-27.5-27.1-27-26.8-26.8-26.6-26.3-21.8-21.8-20.1
2018-02-27 06Z168-37-34-33.3-31.8-31.6-30.1-29.6-29.1-28.6-28.5-28.3-28.1-28-27.5-27.3-27.3-26.8-26.3-24.6-21.8-19.6-18.3
2018-02-27 09Z171-37.6-34.1-32.8-32.3-31.6-30.8-29.8-29.8-28.8-28.6-28.1-27.6-27.6-27.6-27.6-27.1-26.1-25.5-24.3-20.8-19.1-17.8
2018-02-27 12Z174-36.8-33.6-32.6-32.1-31.6-30.8-29.8-29.3-28.3-28.3-27.8-27.6-27.3-26.8-25.1-24.5-23.8-23.8-23.3-19.6-18.1-18.1
2018-02-27 15Z177-35.3-34.3-32.8-32.3-30.8-30-29.6-29.3-28.8-27.3-27.3-26.2-25.8-25.5-23.3-23.1-22.6-22.3-22.1-19.3-19.1-17.6
2018-02-27 18Z180-35.1-34.6-33.3-31.6-31-30.1-29.6-28.1-27.6-27.1-26.6-25.5-24.8-23.1-22.3-22.1-22-21.8-21.6-19.6-19.3-18
2018-02-27 21Z183-34.8-33.1-32.3-31.1-30.3-29.3-28.5-27.8-26.6-26.3-25.8-25.1-24.4-22.8-21.8-21.6-21.6-21.1-20.6-19.8-19.3-18.5
2018-02-28 00Z186-33-32.6-30.6-29.8-29.3-29.1-27.8-27.1-26.1-26-25.5-25.1-24.4-23.5-21.6-21.1-21-20.8-20.5-20-18.5-17.6
2018-02-28 03Z189-33.1-30.6-30.5-29-28.6-28.3-27.8-27.5-27.1-26.3-25.3-24.6-24.6-23.6-21.8-21.3-21.1-21.1-20.5-20.1-18.6-18.5
2018-02-28 06Z192-33-31.1-30.3-29.3-29.1-28.6-28.3-28.1-28.1-26.6-25.5-24.8-24.5-22.6-22-21.8-21.1-21.1-20.8-20.6-19.6-18.6
2018-02-28 12Z198-33.5-33.5-32.8-31.5-31.1-29-29-26.1-25.5-25.1-25-24.8-24.3-22.6-22.5-21.8-21.6-21-20.8-20.3-19.8-18.8
2018-02-28 18Z204-35.3-34-33.8-32.8-28.8-27.6-27.3-26.1-25.3-24.5-23-23-22.5-22.3-22.3-22.3-21.6-20.8-20.8-20.6-20.1-20
2018-03-01 00Z210-35.3-32.1-31.1-29.6-27.6-24.6-24.6-24.6-24.3-24.1-23.6-23.6-23.3-22.8-22.5-22.4-22.1-21.6-20.5-20.3-19.8-19.6
2018-03-01 06Z216-37.1-31.6-30.1-27.6-26.6-26.1-26-25.6-23.6-23.6-23.6-23.1-22.9-22.8-22.5-22.3-22.1-22.1-20.8-20.3-20.1-20
2018-03-01 12Z222-37.1-31.1-27.8-26.3-25.3-24.6-24.1-23.8-23.5-23.1-23-22.5-22.1-21.8-21.5-21-20.6-20.5-20.5-20.3-20-17.6
2018-03-01 18Z228-35.3-32.3-28.5-27.8-25-24.8-24.6-23.5-23.3-22.6-22.5-22.3-22-22-21.6-21.3-21.3-20.5-20.3-20-18.6-17.3
2018-03-02 00Z234-34-30-28.8-23.8-23.8-23.6-23.5-23.1-23-22.6-22.5-22.3-22.1-22.1-22.1-21.6-21.3-20.8-19.8-19.3-19.1-16.8
2018-03-02 06Z240-30.5-29.6-29-25.1-24.1-23.8-23.1-23.1-23-23-22.6-22.6-22.1-22.1-21.8-21.6-20.8-20.6-20.1-19.6-18.1-16.5
2018-03-02 12Z246-28.8-28.1-28.1-27.5-25.1-24.6-24.6-22.8-22.6-22.6-22.3-21.8-21.8-21.8-21.3-21.1-20.8-19.8-19.8-19.5-16.1
2018-03-02 18Z252-29.8-28.8-28.8-27.8-27.6-26.3-25.1-24.1-23.5-22.5-22.1-21.8-21.6-21.3-20.6-19.8-19.6-19.5-19.1-19.1-19-15.8
2018-03-03 00Z258-31.8-29.6-29-28.1-27.3-24.1-22.8-22.6-22.5-22.5-22.3-21.1-20.6-19.8-19.6-19.3-19.1-18.6-18-16.3-16.1
2018-03-03 06Z264-31.8-31.1-30.8-29.6-28.5-24.6-23.3-23.3-22.8-22.8-22.1-22.1-21.9-21.6-19.6-19.3-19.3-19.1-18.1-17.1-16.8-16.7
2018-03-03 12Z270-33.3-32.3-32.1-27.6-26.6-25.5-24.1-23.1-23-22.8-21.6-20.8-19.8-19.6-19.3-19.1-19.1-18.5-18.3-18-17.6
2018-03-03 18Z276-33.3-33-31.6-30.6-28.5-28-26.5-24.6-23-22.6-21.9-21-20.8-20.3-20-19.8-19.6-19.6-19.5-19.3-18.8-18.1
2018-03-04 00Z282-34.5-32-31.3-29.5-27.8-27.3-27-26.6-23.5-23.1-21.8-21.8-21.8-21-20.8-20.6-20.6-19.8-19.6-19.1-18.6
2018-03-04 06Z288-33.8-31.8-31.6-31.6-29.1-28.3-28.1-26.8-25.6-25-24.6-22.5-22.3-22.1-21.5-21.1-21-20.8-20.6-20.6-20.3-18.3
2018-03-04 12Z294-31.6-30.3-30.1-30-29.8-28.8-28.8-27.8-25.3-25.1-24.8-22.6-22.3-22.1-22-21.8-21.1-20.8-20.3-19.8-17.1
2018-03-04 18Z300-31.3-30.8-29.1-28.8-28.6-28.3-26.8-25.5-25.1-25-24.8-24.1-23.8-23.6-21.8-21.3-21.1-21.1-20-19.8-19.6-16
2018-03-05 00Z306-31.3-30.6-30.3-28.3-27.6-27.1-26.6-25.8-25.5-24.8-24.6-24.6-23.8-23.8-21.8-21.6-21.5-21-20.6-19.6-17.1
2018-03-05 06Z312-31.8-29.8-29.3-27.1-26.6-26.3-26.3-26.1-25.8-25.1-24-23.8-22.6-22.5-22.5-21.8-21.6-20.3-19.9-19.3-19-18.8
2018-03-05 12Z318-30.1-29.8-28.8-27.6-25.6-25-24.8-24.8-24.5-24.5-23.3-22.1-22-21.8-21.6-20.8-20.6-20.6-20.1-18.7-17
2018-03-05 18Z324-33.3-31.3-30-27.8-24.6-24.3-23.5-23.5-22.8-22.6-22.1-21.5-21.4-21.3-21.1-21.1-21.1-20.3-20.1-19.8-18.3-17.6
2018-03-06 00Z330-36.3-32.8-27.3-26.8-26.8-25.6-24.1-23.1-22.6-22.3-21.6-21.5-21.5-21.1-20.6-20.3-19.5-19.1-19-18.6-18.1
2018-03-06 06Z336-38.6-35.1-27.3-27-24-23.8-23.6-23.6-23.1-22.8-22.6-22.5-21.5-21.1-20.8-20.8-20.8-18.8-18.8-18.1-18.1-16.7
2018-03-06 12Z342-40.6-32.1-27-25.1-25-24.6-24.6-24.6-23.8-23.5-21.8-21.8-21.6-21.1-20.6-20.6-19.8-18-17.6-17.1-16.8
2018-03-06 18Z348-36.3-28.1-26.3-26.1-25.3-24.8-24.6-24.5-24.4-23.1-23-22.8-22.8-22.1-21.5-21-20.3-18.6-18.6-18.3-17.5-16.3
2018-03-07 00Z354-32.8-29.1-26.5-25.6-25.3-23.3-23.3-23.1-22.8-22.8-22.6-21.8-21.8-21.5-21.3-21-19.6-19.5-19-18.6-17.8
2018-03-07 06Z360-31.7-31.3-29.6-26.6-26.1-25.1-24.8-24-23.8-23.3-23-22.3-22-21.8-21.6-21.3-20.8-20.6-20.1-19.6-19.5-17.5
2018-03-07 12Z366-30.6-28-27.6-27-25.3-25-24.6-24.6-24.3-22.3-22.1-21.8-21.6-20.8-20.1-19.8-19.6-19.6-19.3-19-17.6
2018-03-07 18Z372-31.6-28.2-28.1-28.1-27.5-24.8-24.8-24.8-22.6-22.3-22.1-22-21.6-21.6-20.5-19.5-19.3-19.1-18.8-18-17.8-16.7
2018-03-08 00Z378-30.8-29.1-28.6-28-26.8-25.1-25-23.3-22.3-21.8-21.6-21.5-21.3-21.1-19.8-18.6-18.5-17.6-17.3-16.8-14
2018-03-08 06Z384-32.8-30.8-30.1-28.5-27.3-27.1-23.6-23.3-22.8-22.3-22.1-21.8-21.6-20.8-20.3-19.6-18-18-17.8-16.2-15.8-14.7

Retour à la carte

meteociel.fr™ | © 2004 - 2018 | Forums Météo | Prévi Paris | Liens météo | Média - Meteociel | Mentions légales | Contact
En poursuivant votre navigation sur Meteociel, vous acceptez l'utilisation des cookies. Ils assurent le bon fonctionnement de nos services. [ En savoir plus ] [ OK ]